sensor_id;sensor_type;location;lat;lon;timestamp;P1;durP1;ratioP1;P2;durP2;ratioP2
34204;SDS011;20471;49.680;20.074;2023-06-14T00:00:32;12.20;;;6.90;;
34204;SDS011;20471;49.680;20.074;2023-06-14T00:03:20;9.40;;;6.60;;
34204;SDS011;20471;49.680;20.074;2023-06-14T00:05:48;10.40;;;7.80;;
34204;SDS011;20471;49.680;20.074;2023-06-14T00:08:15;14.60;;;7.70;;
34204;SDS011;20471;49.680;20.074;2023-06-14T00:10:42;10.00;;;7.90;;
34204;SDS011;20471;49.680;20.074;2023-06-14T00:13:09;14.60;;;8.50;;
34204;SDS011;20471;49.680;20.074;2023-06-14T00:15:36;13.70;;;8.00;;
34204;SDS011;20471;49.680;20.074;2023-06-14T00:18:03;10.30;;;7.20;;
34204;SDS011;20471;49.680;20.074;2023-06-14T00:20:32;11.10;;;7.40;;
34204;SDS011;20471;49.680;20.074;2023-06-14T00:22:59;10.20;;;6.50;;
34204;SDS011;20471;49.680;20.074;2023-06-14T00:25:28;10.80;;;7.40;;
34204;SDS011;20471;49.680;20.074;2023-06-14T00:27:55;11.60;;;7.20;;
34204;SDS011;20471;49.680;20.074;2023-06-14T00:30:24;9.20;;;7.10;;
34204;SDS011;20471;49.680;20.074;2023-06-14T00:32:56;9.90;;;7.30;;
34204;SDS011;20471;49.680;20.074;2023-06-14T00:35:23;8.10;;;7.10;;
34204;SDS011;20471;49.680;20.074;2023-06-14T00:37:50;11.80;;;7.10;;
34204;SDS011;20471;49.680;20.074;2023-06-14T00:40:16;8.30;;;7.10;;
34204;SDS011;20471;49.680;20.074;2023-06-14T00:42:43;11.90;;;7.30;;
34204;SDS011;20471;49.680;20.074;2023-06-14T00:45:10;9.50;;;7.30;;
34204;SDS011;20471;49.680;20.074;2023-06-14T00:47:37;9.20;;;6.50;;
34204;SDS011;20471;49.680;20.074;2023-06-14T00:50:08;9.10;;;7.00;;
34204;SDS011;20471;49.680;20.074;2023-06-14T00:52:36;8.40;;;6.70;;
34204;SDS011;20471;49.680;20.074;2023-06-14T00:55:03;10.20;;;7.00;;
34204;SDS011;20471;49.680;20.074;2023-06-14T00:57:30;9.10;;;7.10;;
34204;SDS011;20471;49.680;20.074;2023-06-14T00:59:57;11.20;;;7.50;;
34204;SDS011;20471;49.680;20.074;2023-06-14T01:02:24;8.80;;;6.60;;
34204;SDS011;20471;49.680;20.074;2023-06-14T01:04:51;8.70;;;6.70;;
34204;SDS011;20471;49.680;20.074;2023-06-14T01:07:25;10.10;;;7.10;;
34204;SDS011;20471;49.680;20.074;2023-06-14T01:13:02;9.40;;;7.40;;
34204;SDS011;20471;49.680;20.074;2023-06-14T01:15:35;10.70;;;8.50;;
34204;SDS011;20471;49.680;20.074;2023-06-14T01:18:04;8.50;;;7.40;;
34204;SDS011;20471;49.680;20.074;2023-06-14T01:20:31;15.40;;;7.70;;
34204;SDS011;20471;49.680;20.074;2023-06-14T01:23:02;10.60;;;8.30;;
34204;SDS011;20471;49.680;20.074;2023-06-14T01:25:29;11.10;;;8.30;;
34204;SDS011;20471;49.680;20.074;2023-06-14T01:27:57;10.10;;;7.80;;
34204;SDS011;20471;49.680;20.074;2023-06-14T01:30:36;10.60;;;7.80;;
34204;SDS011;20471;49.680;20.074;2023-06-14T01:33:04;12.30;;;8.70;;
34204;SDS011;20471;49.680;20.074;2023-06-14T01:35:31;11.20;;;8.80;;
34204;SDS011;20471;49.680;20.074;2023-06-14T01:37:58;12.70;;;8.00;;
34204;SDS011;20471;49.680;20.074;2023-06-14T01:40:26;8.30;;;7.50;;
34204;SDS011;20471;49.680;20.074;2023-06-14T01:42:54;9.50;;;8.10;;
34204;SDS011;20471;49.680;20.074;2023-06-14T01:45:21;11.90;;;8.80;;
34204;SDS011;20471;49.680;20.074;2023-06-14T01:47:49;11.20;;;8.10;;
34204;SDS011;20471;49.680;20.074;2023-06-14T01:50:16;11.80;;;8.10;;
34204;SDS011;20471;49.680;20.074;2023-06-14T01:52:46;10.60;;;8.40;;
34204;SDS011;20471;49.680;20.074;2023-06-14T01:55:13;11.60;;;9.20;;
34204;SDS011;20471;49.680;20.074;2023-06-14T01:57:41;11.10;;;7.90;;
34204;SDS011;20471;49.680;20.074;2023-06-14T02:00:08;11.30;;;8.60;;
34204;SDS011;20471;49.680;20.074;2023-06-14T02:02:38;9.70;;;8.00;;
34204;SDS011;20471;49.680;20.074;2023-06-14T02:05:05;12.30;;;9.40;;
34204;SDS011;20471;49.680;20.074;2023-06-14T02:07:32;10.60;;;8.50;;
34204;SDS011;20471;49.680;20.074;2023-06-14T02:09:59;12.80;;;8.50;;
34204;SDS011;20471;49.680;20.074;2023-06-14T02:12:25;12.50;;;9.50;;
34204;SDS011;20471;49.680;20.074;2023-06-14T02:14:52;11.80;;;9.40;;
34204;SDS011;20471;49.680;20.074;2023-06-14T02:17:19;12.00;;;9.40;;
34204;SDS011;20471;49.680;20.074;2023-06-14T02:19:46;9.60;;;8.40;;
34204;SDS011;20471;49.680;20.074;2023-06-14T02:22:13;11.70;;;8.40;;
34204;SDS011;20471;49.680;20.074;2023-06-14T02:24:41;11.10;;;8.60;;
34204;SDS011;20471;49.680;20.074;2023-06-14T02:27:08;15.90;;;9.80;;
34204;SDS011;20471;49.680;20.074;2023-06-14T02:29:36;14.50;;;10.90;;
34204;SDS011;20471;49.680;20.074;2023-06-14T02:32:05;14.20;;;9.90;;
34204;SDS011;20471;49.680;20.074;2023-06-14T02:34:33;12.70;;;9.30;;
34204;SDS011;20471;49.680;20.074;2023-06-14T02:37:01;11.90;;;9.60;;
34204;SDS011;20471;49.680;20.074;2023-06-14T02:39:29;13.30;;;10.00;;
34204;SDS011;20471;49.680;20.074;2023-06-14T02:41:55;13.10;;;10.30;;
34204;SDS011;20471;49.680;20.074;2023-06-14T02:44:25;14.40;;;10.80;;
34204;SDS011;20471;49.680;20.074;2023-06-14T02:46:53;18.80;;;10.90;;
34204;SDS011;20471;49.680;20.074;2023-06-14T02:49:21;14.60;;;9.70;;
34204;SDS011;20471;49.680;20.074;2023-06-14T02:51:49;15.30;;;10.00;;
34204;SDS011;20471;49.680;20.074;2023-06-14T02:54:15;14.30;;;10.60;;
34204;SDS011;20471;49.680;20.074;2023-06-14T02:56:42;16.00;;;10.10;;
34204;SDS011;20471;49.680;20.074;2023-06-14T02:59:09;15.30;;;10.40;;
34204;SDS011;20471;49.680;20.074;2023-06-14T03:01:36;14.30;;;10.40;;
34204;SDS011;20471;49.680;20.074;2023-06-14T03:04:07;12.00;;;9.70;;
34204;SDS011;20471;49.680;20.074;2023-06-14T03:06:34;15.00;;;10.70;;
34204;SDS011;20471;49.680;20.074;2023-06-14T03:09:02;15.80;;;10.40;;
34204;SDS011;20471;49.680;20.074;2023-06-14T03:11:30;15.10;;;10.20;;
34204;SDS011;20471;49.680;20.074;2023-06-14T03:13:58;17.70;;;9.60;;
34204;SDS011;20471;49.680;20.074;2023-06-14T03:16:24;14.60;;;10.40;;
34204;SDS011;20471;49.680;20.074;2023-06-14T03:18:54;14.20;;;10.70;;
34204;SDS011;20471;49.680;20.074;2023-06-14T03:21:21;14.60;;;10.30;;
34204;SDS011;20471;49.680;20.074;2023-06-14T03:23:48;12.00;;;9.60;;
34204;SDS011;20471;49.680;20.074;2023-06-14T03:26:15;15.40;;;10.40;;
34204;SDS011;20471;49.680;20.074;2023-06-14T03:28:44;14.20;;;9.90;;
34204;SDS011;20471;49.680;20.074;2023-06-14T03:31:12;14.90;;;10.50;;
34204;SDS011;20471;49.680;20.074;2023-06-14T03:33:39;15.90;;;10.40;;
34204;SDS011;20471;49.680;20.074;2023-06-14T03:36:06;12.80;;;9.50;;
34204;SDS011;20471;49.680;20.074;2023-06-14T03:38:33;17.80;;;10.50;;
34204;SDS011;20471;49.680;20.074;2023-06-14T03:41:00;13.10;;;9.90;;
34204;SDS011;20471;49.680;20.074;2023-06-14T03:43:27;16.10;;;10.80;;
34204;SDS011;20471;49.680;20.074;2023-06-14T03:45:55;16.40;;;10.40;;
34204;SDS011;20471;49.680;20.074;2023-06-14T03:48:22;14.10;;;10.90;;
34204;SDS011;20471;49.680;20.074;2023-06-14T03:50:49;18.90;;;11.20;;
34204;SDS011;20471;49.680;20.074;2023-06-14T03:53:16;15.90;;;11.50;;
34204;SDS011;20471;49.680;20.074;2023-06-14T03:55:43;18.60;;;11.40;;
34204;SDS011;20471;49.680;20.074;2023-06-14T03:58:10;15.20;;;10.70;;
34204;SDS011;20471;49.680;20.074;2023-06-14T04:00:38;19.70;;;11.10;;
34204;SDS011;20471;49.680;20.074;2023-06-14T04:03:05;14.90;;;10.80;;
34204;SDS011;20471;49.680;20.074;2023-06-14T04:05:32;18.50;;;10.20;;
34204;SDS011;20471;49.680;20.074;2023-06-14T04:07:59;14.90;;;10.60;;
34204;SDS011;20471;49.680;20.074;2023-06-14T04:10:26;14.90;;;10.30;;
34204;SDS011;20471;49.680;20.074;2023-06-14T04:12:53;14.30;;;10.40;;
34204;SDS011;20471;49.680;20.074;2023-06-14T04:15:20;18.60;;;10.40;;
34204;SDS011;20471;49.680;20.074;2023-06-14T04:17:47;17.10;;;9.90;;
34204;SDS011;20471;49.680;20.074;2023-06-14T04:20:14;17.00;;;10.10;;
34204;SDS011;20471;49.680;20.074;2023-06-14T04:22:41;13.90;;;10.30;;
34204;SDS011;20471;49.680;20.074;2023-06-14T04:25:09;13.20;;;9.30;;
34204;SDS011;20471;49.680;20.074;2023-06-14T04:27:35;13.60;;;8.60;;
34204;SDS011;20471;49.680;20.074;2023-06-14T04:30:04;14.20;;;9.00;;
34204;SDS011;20471;49.680;20.074;2023-06-14T04:32:31;15.20;;;9.70;;
34204;SDS011;20471;49.680;20.074;2023-06-14T04:37:34;11.90;;;9.20;;
34204;SDS011;20471;49.680;20.074;2023-06-14T04:40:06;11.40;;;8.60;;
34204;SDS011;20471;49.680;20.074;2023-06-14T04:42:33;12.40;;;8.90;;
34204;SDS011;20471;49.680;20.074;2023-06-14T04:45:02;11.30;;;8.60;;
34204;SDS011;20471;49.680;20.074;2023-06-14T04:47:29;12.20;;;8.60;;
34204;SDS011;20471;49.680;20.074;2023-06-14T04:49:59;10.90;;;8.80;;
34204;SDS011;20471;49.680;20.074;2023-06-14T04:52:26;11.70;;;8.10;;
34204;SDS011;20471;49.680;20.074;2023-06-14T04:54:55;11.20;;;8.10;;
34204;SDS011;20471;49.680;20.074;2023-06-14T04:57:22;12.70;;;8.20;;
34204;SDS011;20471;49.680;20.074;2023-06-14T04:59:51;12.90;;;7.90;;
34204;SDS011;20471;49.680;20.074;2023-06-14T05:02:23;9.90;;;8.60;;
34204;SDS011;20471;49.680;20.074;2023-06-14T05:04:51;13.00;;;7.90;;
34204;SDS011;20471;49.680;20.074;2023-06-14T05:07:18;12.40;;;7.40;;
34204;SDS011;20471;49.680;20.074;2023-06-14T05:09:45;9.70;;;7.90;;
34204;SDS011;20471;49.680;20.074;2023-06-14T05:12:12;10.50;;;7.60;;
34204;SDS011;20471;49.680;20.074;2023-06-14T05:14:39;8.90;;;7.50;;
34204;SDS011;20471;49.680;20.074;2023-06-14T05:17:06;11.00;;;8.30;;
34204;SDS011;20471;49.680;20.074;2023-06-14T05:19:32;12.90;;;8.90;;
34204;SDS011;20471;49.680;20.074;2023-06-14T05:21:59;13.90;;;8.10;;
34204;SDS011;20471;49.680;20.074;2023-06-14T05:24:26;11.50;;;8.30;;
34204;SDS011;20471;49.680;20.074;2023-06-14T05:26:54;10.50;;;7.90;;
34204;SDS011;20471;49.680;20.074;2023-06-14T05:29:21;9.50;;;7.60;;
34204;SDS011;20471;49.680;20.074;2023-06-14T05:31:48;10.80;;;8.10;;
34204;SDS011;20471;49.680;20.074;2023-06-14T05:34:15;10.70;;;7.80;;
34204;SDS011;20471;49.680;20.074;2023-06-14T05:36:41;11.20;;;8.40;;
34204;SDS011;20471;49.680;20.074;2023-06-14T05:39:08;11.60;;;8.00;;
34204;SDS011;20471;49.680;20.074;2023-06-14T05:41:36;12.00;;;8.60;;
34204;SDS011;20471;49.680;20.074;2023-06-14T05:44:02;9.90;;;8.20;;
34204;SDS011;20471;49.680;20.074;2023-06-14T05:46:29;10.20;;;8.50;;
34204;SDS011;20471;49.680;20.074;2023-06-14T05:48:56;10.40;;;7.90;;
34204;SDS011;20471;49.680;20.074;2023-06-14T05:51:23;12.60;;;9.00;;
34204;SDS011;20471;49.680;20.074;2023-06-14T05:53:51;13.10;;;8.20;;
34204;SDS011;20471;49.680;20.074;2023-06-14T05:56:18;10.50;;;8.40;;
34204;SDS011;20471;49.680;20.074;2023-06-14T05:58:45;12.00;;;8.80;;
34204;SDS011;20471;49.680;20.074;2023-06-14T06:01:13;13.10;;;8.80;;
34204;SDS011;20471;49.680;20.074;2023-06-14T06:03:40;13.70;;;10.80;;
34204;SDS011;20471;49.680;20.074;2023-06-14T06:06:12;12.90;;;9.40;;
34204;SDS011;20471;49.680;20.074;2023-06-14T06:08:39;9.60;;;8.10;;
34204;SDS011;20471;49.680;20.074;2023-06-14T06:11:06;10.60;;;8.20;;
34204;SDS011;20471;49.680;20.074;2023-06-14T06:13:33;10.80;;;8.30;;
34204;SDS011;20471;49.680;20.074;2023-06-14T06:16:01;10.20;;;8.20;;
34204;SDS011;20471;49.680;20.074;2023-06-14T06:18:29;13.20;;;8.50;;
34204;SDS011;20471;49.680;20.074;2023-06-14T06:20:56;11.80;;;8.90;;
34204;SDS011;20471;49.680;20.074;2023-06-14T06:23:23;11.30;;;8.50;;
34204;SDS011;20471;49.680;20.074;2023-06-14T06:25:49;12.60;;;8.60;;
34204;SDS011;20471;49.680;20.074;2023-06-14T06:28:16;11.60;;;9.20;;
34204;SDS011;20471;49.680;20.074;2023-06-14T06:30:43;9.90;;;8.50;;
34204;SDS011;20471;49.680;20.074;2023-06-14T06:33:10;12.90;;;9.50;;
34204;SDS011;20471;49.680;20.074;2023-06-14T06:35:37;11.50;;;9.40;;
34204;SDS011;20471;49.680;20.074;2023-06-14T06:38:04;12.60;;;9.70;;
34204;SDS011;20471;49.680;20.074;2023-06-14T06:40:31;12.10;;;9.40;;
34204;SDS011;20471;49.680;20.074;2023-06-14T06:42:57;13.90;;;9.10;;
34204;SDS011;20471;49.680;20.074;2023-06-14T06:45:24;11.10;;;9.30;;
34204;SDS011;20471;49.680;20.074;2023-06-14T06:47:51;13.00;;;9.50;;
34204;SDS011;20471;49.680;20.074;2023-06-14T06:50:18;14.30;;;9.80;;
34204;SDS011;20471;49.680;20.074;2023-06-14T06:52:45;13.10;;;9.60;;
34204;SDS011;20471;49.680;20.074;2023-06-14T06:55:12;14.60;;;9.90;;
34204;SDS011;20471;49.680;20.074;2023-06-14T06:57:39;13.80;;;8.70;;
34204;SDS011;20471;49.680;20.074;2023-06-14T07:00:06;12.00;;;9.20;;
34204;SDS011;20471;49.680;20.074;2023-06-14T07:02:35;12.30;;;9.40;;
34204;SDS011;20471;49.680;20.074;2023-06-14T07:05:03;16.80;;;10.10;;
34204;SDS011;20471;49.680;20.074;2023-06-14T07:07:30;12.30;;;9.10;;
34204;SDS011;20471;49.680;20.074;2023-06-14T07:09:57;14.50;;;9.20;;
34204;SDS011;20471;49.680;20.074;2023-06-14T07:12:24;10.80;;;8.70;;
34204;SDS011;20471;49.680;20.074;2023-06-14T07:14:51;12.80;;;9.50;;
34204;SDS011;20471;49.680;20.074;2023-06-14T07:17:18;14.30;;;9.50;;
34204;SDS011;20471;49.680;20.074;2023-06-14T07:19:45;11.20;;;9.40;;
34204;SDS011;20471;49.680;20.074;2023-06-14T07:22:11;13.40;;;9.50;;
34204;SDS011;20471;49.680;20.074;2023-06-14T07:24:38;10.70;;;8.90;;
34204;SDS011;20471;49.680;20.074;2023-06-14T07:27:06;12.70;;;9.70;;
34204;SDS011;20471;49.680;20.074;2023-06-14T07:29:33;13.30;;;9.00;;
34204;SDS011;20471;49.680;20.074;2023-06-14T07:32:00;13.10;;;9.80;;
34204;SDS011;20471;49.680;20.074;2023-06-14T07:34:27;11.10;;;8.60;;
34204;SDS011;20471;49.680;20.074;2023-06-14T07:36:54;14.90;;;9.90;;
34204;SDS011;20471;49.680;20.074;2023-06-14T07:39:21;12.60;;;8.80;;
34204;SDS011;20471;49.680;20.074;2023-06-14T07:41:48;15.10;;;9.20;;
34204;SDS011;20471;49.680;20.074;2023-06-14T07:44:15;11.30;;;8.20;;
34204;SDS011;20471;49.680;20.074;2023-06-14T07:46:42;10.60;;;8.40;;
34204;SDS011;20471;49.680;20.074;2023-06-14T07:49:09;15.10;;;8.40;;
34204;SDS011;20471;49.680;20.074;2023-06-14T07:51:36;11.30;;;8.60;;
34204;SDS011;20471;49.680;20.074;2023-06-14T07:54:03;10.30;;;8.80;;
34204;SDS011;20471;49.680;20.074;2023-06-14T07:56:33;11.50;;;8.70;;
34204;SDS011;20471;49.680;20.074;2023-06-14T07:58:59;13.00;;;8.60;;
34204;SDS011;20471;49.680;20.074;2023-06-14T08:01:26;12.70;;;9.10;;
34204;SDS011;20471;49.680;20.074;2023-06-14T08:03:54;11.10;;;9.00;;
34204;SDS011;20471;49.680;20.074;2023-06-14T08:06:21;10.80;;;8.70;;
34204;SDS011;20471;49.680;20.074;2023-06-14T08:08:47;12.10;;;8.90;;
34204;SDS011;20471;49.680;20.074;2023-06-14T08:11:14;12.50;;;8.20;;
34204;SDS011;20471;49.680;20.074;2023-06-14T08:13:41;9.00;;;7.90;;
34204;SDS011;20471;49.680;20.074;2023-06-14T08:16:08;9.00;;;7.70;;
34204;SDS011;20471;49.680;20.074;2023-06-14T08:18:36;9.10;;;7.60;;
34204;SDS011;20471;49.680;20.074;2023-06-14T08:21:03;7.90;;;7.10;;
34204;SDS011;20471;49.680;20.074;2023-06-14T08:23:30;9.30;;;7.50;;
34204;SDS011;20471;49.680;20.074;2023-06-14T08:25:57;8.60;;;7.10;;
34204;SDS011;20471;49.680;20.074;2023-06-14T08:28:24;8.10;;;6.90;;
34204;SDS011;20471;49.680;20.074;2023-06-14T08:30:51;9.50;;;7.00;;
34204;SDS011;20471;49.680;20.074;2023-06-14T08:33:17;8.20;;;6.70;;
34204;SDS011;20471;49.680;20.074;2023-06-14T08:35:44;7.90;;;6.60;;
34204;SDS011;20471;49.680;20.074;2023-06-14T08:38:11;7.80;;;6.60;;
34204;SDS011;20471;49.680;20.074;2023-06-14T08:40:38;9.70;;;6.90;;
34204;SDS011;20471;49.680;20.074;2023-06-14T08:43:07;7.10;;;6.30;;
34204;SDS011;20471;49.680;20.074;2023-06-14T08:45:34;10.40;;;7.00;;
34204;SDS011;20471;49.680;20.074;2023-06-14T08:48:01;8.50;;;6.50;;
34204;SDS011;20471;49.680;20.074;2023-06-14T08:50:29;7.70;;;5.90;;
34204;SDS011;20471;49.680;20.074;2023-06-14T08:52:59;5.90;;;5.10;;
34204;SDS011;20471;49.680;20.074;2023-06-14T08:55:31;7.50;;;6.10;;
34204;SDS011;20471;49.680;20.074;2023-06-14T08:57:59;6.50;;;5.40;;
34204;SDS011;20471;49.680;20.074;2023-06-14T09:00:27;5.80;;;5.10;;
34204;SDS011;20471;49.680;20.074;2023-06-14T09:02:54;6.40;;;5.20;;
34204;SDS011;20471;49.680;20.074;2023-06-14T09:05:24;6.50;;;5.50;;
34204;SDS011;20471;49.680;20.074;2023-06-14T09:07:52;7.50;;;5.40;;
34204;SDS011;20471;49.680;20.074;2023-06-14T09:10:21;6.40;;;5.70;;
34204;SDS011;20471;49.680;20.074;2023-06-14T09:12:49;5.60;;;4.70;;
34204;SDS011;20471;49.680;20.074;2023-06-14T09:15:15;5.10;;;4.60;;
34204;SDS011;20471;49.680;20.074;2023-06-14T09:17:42;5.70;;;5.20;;
34204;SDS011;20471;49.680;20.074;2023-06-14T09:20:09;6.60;;;5.40;;
34204;SDS011;20471;49.680;20.074;2023-06-14T09:22:39;8.90;;;6.60;;
34204;SDS011;20471;49.680;20.074;2023-06-14T09:25:07;8.90;;;5.80;;
34204;SDS011;20471;49.680;20.074;2023-06-14T09:27:34;6.80;;;5.90;;
34204;SDS011;20471;49.680;20.074;2023-06-14T09:30:04;8.10;;;6.40;;
34204;SDS011;20471;49.680;20.074;2023-06-14T09:32:31;6.70;;;5.50;;
34204;SDS011;20471;49.680;20.074;2023-06-14T09:35:02;6.90;;;4.90;;
34204;SDS011;20471;49.680;20.074;2023-06-14T09:37:31;5.90;;;4.70;;
34204;SDS011;20471;49.680;20.074;2023-06-14T09:39:58;5.10;;;4.60;;
34204;SDS011;20471;49.680;20.074;2023-06-14T09:42:25;5.10;;;4.50;;
34204;SDS011;20471;49.680;20.074;2023-06-14T09:44:54;5.20;;;3.80;;
34204;SDS011;20471;49.680;20.074;2023-06-14T09:47:23;5.60;;;4.20;;
34204;SDS011;20471;49.680;20.074;2023-06-14T09:49:51;7.10;;;3.90;;
34204;SDS011;20471;49.680;20.074;2023-06-14T09:52:20;4.60;;;4.00;;
34204;SDS011;20471;49.680;20.074;2023-06-14T09:54:48;4.20;;;3.80;;
34204;SDS011;20471;49.680;20.074;2023-06-14T09:57:16;8.40;;;7.50;;
34204;SDS011;20471;49.680;20.074;2023-06-14T10:05:00;4.30;;;3.90;;
34204;SDS011;20471;49.680;20.074;2023-06-14T10:07:32;4.70;;;4.20;;
34204;SDS011;20471;49.680;20.074;2023-06-14T10:10:04;3.50;;;3.10;;
34204;SDS011;20471;49.680;20.074;2023-06-14T10:12:32;4.10;;;3.50;;
34204;SDS011;20471;49.680;20.074;2023-06-14T10:14:59;3.50;;;3.20;;
34204;SDS011;20471;49.680;20.074;2023-06-14T10:17:37;3.10;;;2.90;;
34204;SDS011;20471;49.680;20.074;2023-06-14T10:20:23;2.70;;;2.50;;
34204;SDS011;20471;49.680;20.074;2023-06-14T10:25:45;15.20;;;3.40;;
34204;SDS011;20471;49.680;20.074;2023-06-14T10:28:17;3.50;;;3.10;;
34204;SDS011;20471;49.680;20.074;2023-06-14T10:33:30;3.20;;;2.90;;
34204;SDS011;20471;49.680;20.074;2023-06-14T10:36:09;2.60;;;2.40;;
34204;SDS011;20471;49.680;20.074;2023-06-14T10:41:34;3.30;;;2.90;;
34204;SDS011;20471;49.680;20.074;2023-06-14T10:46:53;3.40;;;3.10;;
34204;SDS011;20471;49.680;20.074;2023-06-14T10:49:35;5.80;;;4.20;;
34204;SDS011;20471;49.680;20.074;2023-06-14T10:52:05;11.70;;;7.20;;
34204;SDS011;20471;49.680;20.074;2023-06-14T10:54:32;5.20;;;4.20;;
34204;SDS011;20471;49.680;20.074;2023-06-14T10:57:02;6.40;;;4.40;;
34204;SDS011;20471;49.680;20.074;2023-06-14T10:59:33;4.20;;;3.80;;
34204;SDS011;20471;49.680;20.074;2023-06-14T11:04:49;4.20;;;3.70;;
34204;SDS011;20471;49.680;20.074;2023-06-14T11:07:35;4.10;;;3.70;;
34204;SDS011;20471;49.680;20.074;2023-06-14T11:12:54;4.40;;;3.70;;
34204;SDS011;20471;49.680;20.074;2023-06-14T11:15:27;3.30;;;3.00;;
34204;SDS011;20471;49.680;20.074;2023-06-14T11:17:56;3.10;;;2.90;;
34204;SDS011;20471;49.680;20.074;2023-06-14T11:20:27;3.70;;;2.90;;
34204;SDS011;20471;49.680;20.074;2023-06-14T11:22:56;3.00;;;2.80;;
34204;SDS011;20471;49.680;20.074;2023-06-14T11:25:24;3.20;;;2.90;;
34204;SDS011;20471;49.680;20.074;2023-06-14T11:27:52;2.90;;;2.70;;
34204;SDS011;20471;49.680;20.074;2023-06-14T11:30:19;3.20;;;2.90;;
34204;SDS011;20471;49.680;20.074;2023-06-14T11:32:49;3.40;;;2.80;;
34204;SDS011;20471;49.680;20.074;2023-06-14T11:35:18;2.80;;;2.60;;
34204;SDS011;20471;49.680;20.074;2023-06-14T11:37:47;2.90;;;2.70;;
34204;SDS011;20471;49.680;20.074;2023-06-14T11:40:15;3.00;;;2.70;;
34204;SDS011;20471;49.680;20.074;2023-06-14T11:42:42;2.90;;;2.70;;
34204;SDS011;20471;49.680;20.074;2023-06-14T11:45:09;4.00;;;2.60;;
34204;SDS011;20471;49.680;20.074;2023-06-14T11:47:39;2.80;;;2.30;;
34204;SDS011;20471;49.680;20.074;2023-06-14T11:50:07;2.90;;;2.70;;
34204;SDS011;20471;49.680;20.074;2023-06-14T11:52:36;2.20;;;2.00;;
34204;SDS011;20471;49.680;20.074;2023-06-14T11:55:03;2.10;;;2.00;;
34204;SDS011;20471;49.680;20.074;2023-06-14T11:57:33;2.70;;;2.50;;
34204;SDS011;20471;49.680;20.074;2023-06-14T12:00:06;2.50;;;2.30;;
34204;SDS011;20471;49.680;20.074;2023-06-14T12:02:38;2.20;;;2.10;;
34204;SDS011;20471;49.680;20.074;2023-06-14T12:05:06;2.40;;;2.20;;
34204;SDS011;20471;49.680;20.074;2023-06-14T12:07:36;2.50;;;2.30;;
34204;SDS011;20471;49.680;20.074;2023-06-14T12:10:06;2.20;;;2.10;;
34204;SDS011;20471;49.680;20.074;2023-06-14T12:12:37;2.20;;;2.10;;
34204;SDS011;20471;49.680;20.074;2023-06-14T12:15:05;2.90;;;2.50;;
34204;SDS011;20471;49.680;20.074;2023-06-14T12:17:34;2.30;;;2.10;;
34204;SDS011;20471;49.680;20.074;2023-06-14T12:20:08;2.20;;;2.00;;
34204;SDS011;20471;49.680;20.074;2023-06-14T12:22:37;2.60;;;2.30;;
34204;SDS011;20471;49.680;20.074;2023-06-14T12:25:04;2.60;;;2.20;;
34204;SDS011;20471;49.680;20.074;2023-06-14T12:27:31;2.40;;;2.20;;
34204;SDS011;20471;49.680;20.074;2023-06-14T12:29:59;2.00;;;1.90;;
34204;SDS011;20471;49.680;20.074;2023-06-14T12:32:30;2.50;;;2.30;;
34204;SDS011;20471;49.680;20.074;2023-06-14T12:34:57;2.60;;;2.40;;
34204;SDS011;20471;49.680;20.074;2023-06-14T12:37:23;4.70;;;2.30;;
34204;SDS011;20471;49.680;20.074;2023-06-14T12:39:50;2.10;;;1.90;;
34204;SDS011;20471;49.680;20.074;2023-06-14T12:42:17;2.80;;;2.20;;
34204;SDS011;20471;49.680;20.074;2023-06-14T12:44:45;2.40;;;2.20;;
34204;SDS011;20471;49.680;20.074;2023-06-14T12:47:11;2.30;;;2.10;;
34204;SDS011;20471;49.680;20.074;2023-06-14T12:49:38;3.70;;;2.60;;
34204;SDS011;20471;49.680;20.074;2023-06-14T12:52:07;3.60;;;2.90;;
34204;SDS011;20471;49.680;20.074;2023-06-14T12:54:34;3.10;;;2.80;;
34204;SDS011;20471;49.680;20.074;2023-06-14T12:57:01;2.70;;;2.20;;
34204;SDS011;20471;49.680;20.074;2023-06-14T12:59:29;2.90;;;2.70;;
34204;SDS011;20471;49.680;20.074;2023-06-14T13:02:00;2.90;;;2.70;;
34204;SDS011;20471;49.680;20.074;2023-06-14T13:04:37;2.80;;;2.60;;
34204;SDS011;20471;49.680;20.074;2023-06-14T13:07:04;4.20;;;2.80;;
34204;SDS011;20471;49.680;20.074;2023-06-14T13:09:31;3.60;;;2.70;;
34204;SDS011;20471;49.680;20.074;2023-06-14T13:11:58;3.10;;;2.40;;
34204;SDS011;20471;49.680;20.074;2023-06-14T13:14:24;2.50;;;2.30;;
34204;SDS011;20471;49.680;20.074;2023-06-14T13:16:52;2.70;;;2.40;;
34204;SDS011;20471;49.680;20.074;2023-06-14T13:19:18;4.10;;;2.70;;
34204;SDS011;20471;49.680;20.074;2023-06-14T13:21:45;5.20;;;2.60;;
34204;SDS011;20471;49.680;20.074;2023-06-14T13:24:12;3.20;;;2.60;;
34204;SDS011;20471;49.680;20.074;2023-06-14T13:26:39;2.90;;;2.60;;
34204;SDS011;20471;49.680;20.074;2023-06-14T13:29:06;2.90;;;2.70;;
34204;SDS011;20471;49.680;20.074;2023-06-14T13:31:32;2.80;;;2.60;;
34204;SDS011;20471;49.680;20.074;2023-06-14T13:34:00;2.90;;;2.60;;
34204;SDS011;20471;49.680;20.074;2023-06-14T13:36:26;3.10;;;2.80;;
34204;SDS011;20471;49.680;20.074;2023-06-14T13:38:53;2.50;;;2.30;;
34204;SDS011;20471;49.680;20.074;2023-06-14T13:41:20;4.10;;;2.90;;
34204;SDS011;20471;49.680;20.074;2023-06-14T13:43:47;2.90;;;2.70;;
34204;SDS011;20471;49.680;20.074;2023-06-14T13:46:14;2.90;;;2.70;;
34204;SDS011;20471;49.680;20.074;2023-06-14T13:48:41;3.90;;;2.80;;
34204;SDS011;20471;49.680;20.074;2023-06-14T13:51:08;4.10;;;2.40;;
34204;SDS011;20471;49.680;20.074;2023-06-14T13:53:34;4.80;;;2.50;;
34204;SDS011;20471;49.680;20.074;2023-06-14T13:56:01;3.00;;;2.70;;
34204;SDS011;20471;49.680;20.074;2023-06-14T13:58:28;3.30;;;3.00;;
34204;SDS011;20471;49.680;20.074;2023-06-14T14:00:55;4.60;;;3.20;;
34204;SDS011;20471;49.680;20.074;2023-06-14T14:03:22;3.00;;;2.80;;
34204;SDS011;20471;49.680;20.074;2023-06-14T14:05:50;3.40;;;3.10;;
34204;SDS011;20471;49.680;20.074;2023-06-14T14:08:17;4.40;;;2.70;;
34204;SDS011;20471;49.680;20.074;2023-06-14T14:10:43;3.10;;;2.80;;
34204;SDS011;20471;49.680;20.074;2023-06-14T14:13:11;3.00;;;2.80;;
34204;SDS011;20471;49.680;20.074;2023-06-14T14:15:38;3.00;;;2.70;;
34204;SDS011;20471;49.680;20.074;2023-06-14T14:18:05;4.90;;;2.70;;
34204;SDS011;20471;49.680;20.074;2023-06-14T14:20:32;3.70;;;2.50;;
34204;SDS011;20471;49.680;20.074;2023-06-14T14:22:59;3.40;;;2.70;;
34204;SDS011;20471;49.680;20.074;2023-06-14T14:25:26;4.30;;;2.70;;
34204;SDS011;20471;49.680;20.074;2023-06-14T14:27:52;4.80;;;2.70;;
34204;SDS011;20471;49.680;20.074;2023-06-14T14:30:19;9.80;;;3.30;;
34204;SDS011;20471;49.680;20.074;2023-06-14T14:32:49;4.40;;;3.20;;
34204;SDS011;20471;49.680;20.074;2023-06-14T14:35:17;4.10;;;3.00;;
34204;SDS011;20471;49.680;20.074;2023-06-14T14:37:44;12.20;;;5.70;;
34204;SDS011;20471;49.680;20.074;2023-06-14T14:40:11;3.70;;;3.30;;
34204;SDS011;20471;49.680;20.074;2023-06-14T14:42:38;6.40;;;3.50;;
34204;SDS011;20471;49.680;20.074;2023-06-14T14:45:05;3.30;;;2.90;;
34204;SDS011;20471;49.680;20.074;2023-06-14T14:47:32;4.20;;;3.20;;
34204;SDS011;20471;49.680;20.074;2023-06-14T14:49:59;3.60;;;3.30;;
34204;SDS011;20471;49.680;20.074;2023-06-14T14:52:26;4.10;;;3.30;;
34204;SDS011;20471;49.680;20.074;2023-06-14T14:54:52;3.50;;;3.20;;
34204;SDS011;20471;49.680;20.074;2023-06-14T14:57:19;3.40;;;3.10;;